createdAt,value
2022-12-18T00:02:35.852Z,71.46
2022-12-18T00:07:37.452Z,71.70
2022-12-18T00:12:38.994Z,71.90
2022-12-18T00:17:40.496Z,71.86
2022-12-18T00:22:41.967Z,71.93
2022-12-18T00:27:43.444Z,72.34
2022-12-18T00:32:44.939Z,72.37
2022-12-18T00:37:46.427Z,71.72
2022-12-18T00:42:47.943Z,71.53
2022-12-18T00:47:49.403Z,71.11
2022-12-18T00:52:51.340Z,71.24
2022-12-18T00:57:53.087Z,70.58
2022-12-18T01:02:54.630Z,71.28
2022-12-18T01:07:57.259Z,70.68
2022-12-18T01:12:58.783Z,71.07
2022-12-18T01:18:00.238Z,70.64
2022-12-18T01:23:02.116Z,71.21
2022-12-18T01:28:03.990Z,71.45
2022-12-18T01:33:07.379Z,71.63
2022-12-18T01:38:10.587Z,71.10
2022-12-18T01:43:12.578Z,71.27
2022-12-18T01:48:14.996Z,71.07
2022-12-18T01:53:21.753Z,71.40
2022-12-18T01:58:33.804Z,71.27
2022-12-18T02:03:35.804Z,71.01
2022-12-18T02:08:54.211Z,70.77
2022-12-18T02:14:27.124Z,70.38
2022-12-18T02:20:13.169Z,70.61
2022-12-18T02:25:22.374Z,70.85
2022-12-18T02:30:24.285Z,71.50
2022-12-18T02:35:29.881Z,70.53
2022-12-18T02:40:34.035Z,70.33
2022-12-18T02:45:36.280Z,70.09
2022-12-18T02:50:46.384Z,70.19
2022-12-18T02:56:10.891Z,70.32
2022-12-18T03:01:39.536Z,70.31
2022-12-18T03:06:47.324Z,70.98
2022-12-18T03:11:57.783Z,70.67
2022-12-18T03:17:09.732Z,70.33
2022-12-18T03:22:11.778Z,70.90
2022-12-18T03:27:24.649Z,71.03
2022-12-18T03:32:34.218Z,71.09
2022-12-18T03:37:36.055Z,70.51
2022-12-18T03:42:57.740Z,71.08
2022-12-18T03:48:14.203Z,71.05
2022-12-18T03:53:41.802Z,71.10
2022-12-18T03:58:45.296Z,70.85
2022-12-18T04:04:02.250Z,70.43
2022-12-18T04:09:08.242Z,70.66
2022-12-18T04:14:17.696Z,70.31
2022-12-18T04:19:20.106Z,69.84
2022-12-18T04:24:24.626Z,70.43
2022-12-18T04:29:41.656Z,70.29
2022-12-18T04:34:43.397Z,70.36
2022-12-18T04:39:45.253Z,70.47
2022-12-18T04:44:55.322Z,69.78
2022-12-18T04:49:56.799Z,69.72
2022-12-18T04:54:58.280Z,69.54
2022-12-18T04:59:59.711Z,70.18
2022-12-18T05:05:01.160Z,69.75
2022-12-18T05:10:03.008Z,69.62
2022-12-18T05:15:04.855Z,70.48
2022-12-18T05:20:06.512Z,69.84
2022-12-18T05:25:08.417Z,69.39
2022-12-18T05:30:12.042Z,69.86
2022-12-18T05:35:13.518Z,70.50
2022-12-18T05:40:14.951Z,70.23
2022-12-18T05:45:16.438Z,69.78
2022-12-18T05:50:18.061Z,70.38
2022-12-18T05:55:19.500Z,70.08
2022-12-18T06:00:20.963Z,70.01
2022-12-18T06:05:22.495Z,69.89
2022-12-18T06:10:23.896Z,69.87
2022-12-18T06:15:25.311Z,69.87
2022-12-18T06:20:30.530Z,69.63
2022-12-18T06:25:37.722Z,69.72
2022-12-18T06:30:39.193Z,69.14
2022-12-18T06:35:41.067Z,69.39
2022-12-18T06:40:42.476Z,69.29
2022-12-18T06:45:43.967Z,69.54
2022-12-18T06:50:45.463Z,68.87
2022-12-18T06:55:46.989Z,69.07
2022-12-18T07:00:48.421Z,69.26
2022-12-18T07:05:49.868Z,69.07
2022-12-18T07:10:55.878Z,68.79
2022-12-18T07:16:06.828Z,68.85
2022-12-18T07:21:14.520Z,69.16
2022-12-18T07:26:18.666Z,69.17
2022-12-18T07:31:22.260Z,69.32
2022-12-18T07:36:24.135Z,69.07
2022-12-18T07:41:25.610Z,68.87
2022-12-18T07:46:27.115Z,69.18
2022-12-18T07:51:28.532Z,69.02
2022-12-18T07:56:31.363Z,68.86
2022-12-18T08:01:34.207Z,68.90
2022-12-18T08:06:35.929Z,68.06
2022-12-18T08:11:37.331Z,68.42
2022-12-18T08:16:38.866Z,68.60
2022-12-18T08:21:40.393Z,68.59
2022-12-18T08:26:45.554Z,68.61
2022-12-18T08:31:53.459Z,68.22
2022-12-18T08:36:54.896Z,68.09
2022-12-18T08:41:56.361Z,67.69
2022-12-18T08:46:57.849Z,67.60
2022-12-18T08:51:59.483Z,67.04
2022-12-18T08:57:00.982Z,66.64
2022-12-18T09:02:02.802Z,67.59
2022-12-18T09:07:04.582Z,66.81
2022-12-18T09:12:06.252Z,67.32
2022-12-18T09:17:07.849Z,67.50
2022-12-18T09:22:09.425Z,67.62
2022-12-18T09:27:10.944Z,68.04
2022-12-18T09:32:14.369Z,67.93
2022-12-18T09:37:19.068Z,67.33
2022-12-18T09:42:24.093Z,65.93
2022-12-18T09:47:30.605Z,65.93
2022-12-18T09:52:40.885Z,65.96
2022-12-18T09:57:49.016Z,65.37
2022-12-18T10:03:00.505Z,65.43
2022-12-18T10:08:27.497Z,64.90
2022-12-18T10:14:00.788Z,65.60
2022-12-18T10:19:22.435Z,65.42
2022-12-18T10:24:38.967Z,65.48
2022-12-18T10:29:42.777Z,65.69
2022-12-18T10:34:55.333Z,66.37
2022-12-18T10:40:18.196Z,66.20
2022-12-18T10:45:24.154Z,66.37
2022-12-18T10:51:01.711Z,65.86
2022-12-18T10:55:58.165Z,64.74
2022-12-18T11:01:17.586Z,66.67
2022-12-18T11:06:22.587Z,67.23
2022-12-18T11:11:25.353Z,67.54
2022-12-18T11:16:28.359Z,68.08
2022-12-18T11:21:29.886Z,67.97
2022-12-18T11:26:35.867Z,68.02
2022-12-18T11:31:38.688Z,67.07
2022-12-18T11:36:45.344Z,67.01
2022-12-18T11:41:55.558Z,65.98
2022-12-18T11:58:31.307Z,66.36
2022-12-18T14:24:14.640Z,68.19
2022-12-18T14:29:31.162Z,68.91
2022-12-18T14:34:32.632Z,68.98
2022-12-18T14:39:34.088Z,69.72
2022-12-18T14:44:50.743Z,69.50
2022-12-18T14:49:57.010Z,69.69
2022-12-18T14:54:58.481Z,70.00
2022-12-18T15:00:15.645Z,69.97
2022-12-18T15:49:24.589Z,70.92
2022-12-18T15:54:26.767Z,70.50
2022-12-18T15:59:28.258Z,71.00
2022-12-18T20:17:39.607Z,72.51
2022-12-18T20:22:41.363Z,72.55
2022-12-18T20:32:44.388Z,72.87
2022-12-18T20:37:49.813Z,72.39
2022-12-18T20:42:52.412Z,73.28
2022-12-18T20:47:55.140Z,74.00
2022-12-18T20:52:56.615Z,73.95
2022-12-18T20:57:58.096Z,73.77
2022-12-18T21:02:59.589Z,73.63
2022-12-18T21:08:01.127Z,73.31
2022-12-18T21:13:04.670Z,73.21
2022-12-18T21:18:09.359Z,73.35
2022-12-18T21:34:02.233Z,72.72
2022-12-18T21:39:04.019Z,72.75
2022-12-18T21:44:06.187Z,72.83
2022-12-18T21:49:09.035Z,72.62
2022-12-18T21:54:11.426Z,72.74
2022-12-18T21:59:15.807Z,73.26
2022-12-18T22:04:18.136Z,72.88
2022-12-18T22:09:22.029Z,73.01
2022-12-18T22:14:23.633Z,73.24
2022-12-18T22:19:25.479Z,73.26
2022-12-18T22:24:27.255Z,73.10
2022-12-18T22:29:28.994Z,73.28
2022-12-18T22:34:36.566Z,73.14
2022-12-18T22:39:38.260Z,73.08
2022-12-18T22:44:40.076Z,73.09
2022-12-18T22:49:41.590Z,72.95
2022-12-18T22:54:43.094Z,72.66
2022-12-18T22:59:44.547Z,72.51
2022-12-18T23:04:46.060Z,73.37
2022-12-18T23:09:47.843Z,72.89
2022-12-18T23:14:51.412Z,72.51
2022-12-18T23:19:52.831Z,72.29
2022-12-18T23:24:54.290Z,72.96
2022-12-18T23:29:55.716Z,73.11
2022-12-18T23:34:59.865Z,73.14
2022-12-18T23:40:01.284Z,72.68
2022-12-18T23:45:12.278Z,73.00
2022-12-18T23:50:19.384Z,72.67
2022-12-18T23:55:25.265Z,72.76
